sensor_id;sensor_type;location;lat;lon;timestamp;pressure;altitude;pressure_sealevel;temperature;humidity
39177;BME280;24904;52.208;21.192;2024-01-06T00:04:54;100015.16;;;-0.57;75.05
39177;BME280;24904;52.208;21.192;2024-01-06T00:09:59;100012.01;;;-0.60;75.30
39177;BME280;24904;52.208;21.192;2024-01-06T00:15:06;100015.63;;;-0.61;75.33
39177;BME280;24904;52.208;21.192;2024-01-06T00:20:12;100022.10;;;-0.61;75.39
39177;BME280;24904;52.208;21.192;2024-01-06T00:25:17;100024.98;;;-0.68;75.41
39177;BME280;24904;52.208;21.192;2024-01-06T00:30:22;100021.83;;;-0.75;75.57
39177;BME280;24904;52.208;21.192;2024-01-06T00:35:27;100027.80;;;-0.72;75.96
39177;BME280;24904;52.208;21.192;2024-01-06T00:40:32;100033.09;;;-0.77;75.86
39177;BME280;24904;52.208;21.192;2024-01-06T00:45:37;100041.73;;;-0.77;76.30
39177;BME280;24904;52.208;21.192;2024-01-06T00:50:42;100042.02;;;-0.76;76.07
39177;BME280;24904;52.208;21.192;2024-01-06T00:55:47;100030.56;;;-0.79;76.49
39177;BME280;24904;52.208;21.192;2024-01-06T01:00:52;100014.33;;;-0.80;76.46
39177;BME280;24904;52.208;21.192;2024-01-06T01:05:57;100006.14;;;-0.92;76.36
39177;BME280;24904;52.208;21.192;2024-01-06T01:11:02;100001.94;;;-0.96;76.77
39177;BME280;24904;52.208;21.192;2024-01-06T01:16:08;100000.67;;;-0.95;76.71
39177;BME280;24904;52.208;21.192;2024-01-06T01:21:13;99982.75;;;-0.96;76.72
39177;BME280;24904;52.208;21.192;2024-01-06T01:26:18;99979.12;;;-0.98;76.73
39177;BME280;24904;52.208;21.192;2024-01-06T01:31:23;99979.59;;;-0.99;76.72
39177;BME280;24904;52.208;21.192;2024-01-06T01:36:28;99992.09;;;-1.07;76.74
39177;BME280;24904;52.208;21.192;2024-01-06T01:41:33;99998.05;;;-1.07;77.09
39177;BME280;24904;52.208;21.192;2024-01-06T01:46:39;99995.86;;;-1.09;77.05
39177;BME280;24904;52.208;21.192;2024-01-06T01:51:45;99997.80;;;-1.07;77.09
39177;BME280;24904;52.208;21.192;2024-01-06T01:56:50;99997.70;;;-1.08;77.08
39177;BME280;24904;52.208;21.192;2024-01-06T02:01:55;99999.29;;;-1.07;77.56
39177;BME280;24904;52.208;21.192;2024-01-06T02:07:00;100003.60;;;-1.01;77.32
39177;BME280;24904;52.208;21.192;2024-01-06T02:12:06;99992.95;;;-0.97;77.21
39177;BME280;24904;52.208;21.192;2024-01-06T02:17:11;99987.64;;;-0.95;77.25
39177;BME280;24904;52.208;21.192;2024-01-06T02:22:16;99982.38;;;-0.96;77.15
39177;BME280;24904;52.208;21.192;2024-01-06T02:27:21;99981.71;;;-0.94;77.12
39177;BME280;24904;52.208;21.192;2024-01-06T02:32:26;99975.50;;;-0.93;77.06
39177;BME280;24904;52.208;21.192;2024-01-06T02:37:31;99974.30;;;-0.93;76.99
39177;BME280;24904;52.208;21.192;2024-01-06T02:42:36;99970.24;;;-0.85;77.04
39177;BME280;24904;52.208;21.192;2024-01-06T02:47:41;99963.11;;;-0.80;76.94
39177;BME280;24904;52.208;21.192;2024-01-06T02:52:46;99958.21;;;-0.83;76.50
39177;BME280;24904;52.208;21.192;2024-01-06T02:57:51;99961.03;;;-0.88;76.50
39177;BME280;24904;52.208;21.192;2024-01-06T03:02:56;99954.19;;;-0.90;76.79
39177;BME280;24904;52.208;21.192;2024-01-06T03:08:01;99956.91;;;-0.87;76.75
39177;BME280;24904;52.208;21.192;2024-01-06T03:13:07;99960.48;;;-0.92;76.66
39177;BME280;24904;52.208;21.192;2024-01-06T03:18:12;99968.73;;;-0.93;76.67
39177;BME280;24904;52.208;21.192;2024-01-06T03:23:17;99967.57;;;-0.96;76.49
39177;BME280;24904;52.208;21.192;2024-01-06T03:28:22;99964.17;;;-0.97;76.53
39177;BME280;24904;52.208;21.192;2024-01-06T03:33:27;99957.91;;;-0.98;76.36
39177;BME280;24904;52.208;21.192;2024-01-06T03:38:32;99961.02;;;-1.01;76.71
39177;BME280;24904;52.208;21.192;2024-01-06T03:43:37;99957.77;;;-1.00;76.68
39177;BME280;24904;52.208;21.192;2024-01-06T03:48:42;99952.94;;;-0.98;76.57
39177;BME280;24904;52.208;21.192;2024-01-06T03:53:47;99960.59;;;-0.99;76.88
39177;BME280;24904;52.208;21.192;2024-01-06T03:58:52;99958.90;;;-1.00;76.58
39177;BME280;24904;52.208;21.192;2024-01-06T04:03:57;99951.35;;;-0.99;76.82
39177;BME280;24904;52.208;21.192;2024-01-06T04:09:02;99948.95;;;-1.00;76.91
39177;BME280;24904;52.208;21.192;2024-01-06T04:14:07;99962.61;;;-0.98;76.93
39177;BME280;24904;52.208;21.192;2024-01-06T04:19:12;99966.76;;;-0.99;77.25
39177;BME280;24904;52.208;21.192;2024-01-06T04:24:18;99967.58;;;-1.04;77.04
39177;BME280;24904;52.208;21.192;2024-01-06T04:29:23;99974.23;;;-1.04;77.37
39177;BME280;24904;52.208;21.192;2024-01-06T04:34:28;99970.94;;;-1.04;77.62
39177;BME280;24904;52.208;21.192;2024-01-06T04:39:33;99972.16;;;-1.00;77.48
39177;BME280;24904;52.208;21.192;2024-01-06T04:44:38;99976.55;;;-0.98;77.65
39177;BME280;24904;52.208;21.192;2024-01-06T04:49:43;99977.78;;;-0.95;77.73
39177;BME280;24904;52.208;21.192;2024-01-06T04:54:48;99980.74;;;-0.91;77.87
39177;BME280;24904;52.208;21.192;2024-01-06T04:59:54;99989.46;;;-0.93;77.94
39177;BME280;24904;52.208;21.192;2024-01-06T05:04:58;99992.05;;;-0.92;78.24
39177;BME280;24904;52.208;21.192;2024-01-06T05:10:04;99992.52;;;-0.88;78.08
39177;BME280;24904;52.208;21.192;2024-01-06T05:15:11;99992.27;;;-0.85;77.97
39177;BME280;24904;52.208;21.192;2024-01-06T05:20:17;99983.34;;;-0.87;77.80
39177;BME280;24904;52.208;21.192;2024-01-06T05:25:22;99980.83;;;-0.93;77.69
39177;BME280;24904;52.208;21.192;2024-01-06T05:30:27;99989.67;;;-0.97;77.74
39177;BME280;24904;52.208;21.192;2024-01-06T05:35:32;99999.47;;;-1.01;77.89
39177;BME280;24904;52.208;21.192;2024-01-06T05:40:37;100006.27;;;-1.00;78.01
39177;BME280;24904;52.208;21.192;2024-01-06T05:45:42;100009.02;;;-1.00;77.80
39177;BME280;24904;52.208;21.192;2024-01-06T05:50:47;100000.02;;;-0.97;77.78
39177;BME280;24904;52.208;21.192;2024-01-06T05:55:52;100004.27;;;-1.00;77.86
39177;BME280;24904;52.208;21.192;2024-01-06T06:00:57;100002.20;;;-1.03;77.77
39177;BME280;24904;52.208;21.192;2024-01-06T06:06:02;100000.86;;;-1.05;78.04
39177;BME280;24904;52.208;21.192;2024-01-06T06:11:08;100004.49;;;-0.97;77.89
39177;BME280;24904;52.208;21.192;2024-01-06T06:16:15;100013.56;;;-0.97;77.79
39177;BME280;24904;52.208;21.192;2024-01-06T06:21:20;100020.20;;;-0.98;77.85
39177;BME280;24904;52.208;21.192;2024-01-06T06:26:25;100027.81;;;-0.94;77.84
39177;BME280;24904;52.208;21.192;2024-01-06T06:31:30;100035.94;;;-0.92;77.80
39177;BME280;24904;52.208;21.192;2024-01-06T06:36:35;100040.70;;;-0.90;77.94
39177;BME280;24904;52.208;21.192;2024-01-06T06:41:41;100046.25;;;-0.83;77.86
39177;BME280;24904;52.208;21.192;2024-01-06T06:46:46;100044.39;;;-0.80;77.66
39177;BME280;24904;52.208;21.192;2024-01-06T06:51:51;100049.97;;;-0.81;77.43
39177;BME280;24904;52.208;21.192;2024-01-06T06:56:56;100056.57;;;-0.80;77.42
39177;BME280;24904;52.208;21.192;2024-01-06T07:02:01;100072.50;;;-0.79;77.25
39177;BME280;24904;52.208;21.192;2024-01-06T07:07:07;100081.55;;;-0.80;77.28
39177;BME280;24904;52.208;21.192;2024-01-06T07:12:13;100078.35;;;-0.80;77.39
39177;BME280;24904;52.208;21.192;2024-01-06T07:17:18;100078.20;;;-0.80;77.20
39177;BME280;24904;52.208;21.192;2024-01-06T07:22:23;100075.61;;;-0.90;77.00
39177;BME280;24904;52.208;21.192;2024-01-06T07:27:28;100078.96;;;-0.92;76.99
39177;BME280;24904;52.208;21.192;2024-01-06T07:32:33;100073.98;;;-0.98;76.88
39177;BME280;24904;52.208;21.192;2024-01-06T07:37:38;100069.39;;;-1.00;77.29
39177;BME280;24904;52.208;21.192;2024-01-06T07:42:43;100073.52;;;-0.99;77.50
39177;BME280;24904;52.208;21.192;2024-01-06T07:47:48;100073.98;;;-0.93;77.50
39177;BME280;24904;52.208;21.192;2024-01-06T07:52:53;100086.35;;;-0.86;77.46
39177;BME280;24904;52.208;21.192;2024-01-06T07:57:58;100100.16;;;-0.83;77.19
39177;BME280;24904;52.208;21.192;2024-01-06T08:03:04;100107.61;;;-0.81;77.18
39177;BME280;24904;52.208;21.192;2024-01-06T08:08:09;100111.12;;;-0.79;77.28
39177;BME280;24904;52.208;21.192;2024-01-06T08:13:16;100122.00;;;-0.79;77.07
39177;BME280;24904;52.208;21.192;2024-01-06T08:18:21;100117.93;;;-0.78;77.10
39177;BME280;24904;52.208;21.192;2024-01-06T08:23:26;100122.69;;;-0.80;76.76
39177;BME280;24904;52.208;21.192;2024-01-06T08:28:31;100123.77;;;-0.79;77.05
39177;BME280;24904;52.208;21.192;2024-01-06T08:33:36;100128.27;;;-0.75;76.96
39177;BME280;24904;52.208;21.192;2024-01-06T08:38:41;100132.88;;;-0.78;76.59
39177;BME280;24904;52.208;21.192;2024-01-06T08:43:46;100137.88;;;-0.71;76.76
39177;BME280;24904;52.208;21.192;2024-01-06T08:48:51;100141.05;;;-0.70;76.81
39177;BME280;24904;52.208;21.192;2024-01-06T08:53:56;100146.36;;;-0.67;76.75
39177;BME280;24904;52.208;21.192;2024-01-06T08:59:01;100151.69;;;-0.72;76.52
39177;BME280;24904;52.208;21.192;2024-01-06T09:04:06;100152.66;;;-0.71;76.64
39177;BME280;24904;52.208;21.192;2024-01-06T09:09:12;100152.48;;;-0.78;76.34
39177;BME280;24904;52.208;21.192;2024-01-06T09:14:18;100165.02;;;-0.79;76.49
39177;BME280;24904;52.208;21.192;2024-01-06T09:19:23;100168.41;;;-0.81;76.36
39177;BME280;24904;52.208;21.192;2024-01-06T09:24:31;100169.61;;;-0.77;76.62
39177;BME280;24904;52.208;21.192;2024-01-06T09:29:37;100170.58;;;-0.70;76.32
39177;BME280;24904;52.208;21.192;2024-01-06T09:34:42;100178.95;;;-0.78;76.16
39177;BME280;24904;52.208;21.192;2024-01-06T09:39:47;100176.91;;;-0.80;76.30
39177;BME280;24904;52.208;21.192;2024-01-06T09:44:52;100169.60;;;-0.79;76.31
39177;BME280;24904;52.208;21.192;2024-01-06T09:50:00;100167.55;;;-0.86;76.25
39177;BME280;24904;52.208;21.192;2024-01-06T09:55:11;100170.50;;;-0.88;76.54
39177;BME280;24904;52.208;21.192;2024-01-06T10:00:17;100167.90;;;-0.87;76.62
39177;BME280;24904;52.208;21.192;2024-01-06T10:05:23;100164.34;;;-0.85;76.62
39177;BME280;24904;52.208;21.192;2024-01-06T10:10:28;100169.56;;;-0.79;76.69
39177;BME280;24904;52.208;21.192;2024-01-06T10:15:36;100177.54;;;-0.82;76.76
39177;BME280;24904;52.208;21.192;2024-01-06T10:20:41;100171.69;;;-0.88;76.89
39177;BME280;24904;52.208;21.192;2024-01-06T10:25:48;100175.12;;;-0.94;76.93
39177;BME280;24904;52.208;21.192;2024-01-06T10:30:56;100184.10;;;-1.01;77.18
39177;BME280;24904;52.208;21.192;2024-01-06T10:36:03;100184.36;;;-1.01;77.46
39177;BME280;24904;52.208;21.192;2024-01-06T10:41:09;100184.70;;;-0.99;77.84
39177;BME280;24904;52.208;21.192;2024-01-06T10:46:14;100182.00;;;-0.98;77.91
39177;BME280;24904;52.208;21.192;2024-01-06T10:51:20;100185.02;;;-0.92;78.01
39177;BME280;24904;52.208;21.192;2024-01-06T10:56:26;100188.21;;;-0.86;78.17
39177;BME280;24904;52.208;21.192;2024-01-06T11:01:32;100180.46;;;-0.80;78.15
39177;BME280;24904;52.208;21.192;2024-01-06T11:06:38;100176.88;;;-0.75;78.26
39177;BME280;24904;52.208;21.192;2024-01-06T11:11:44;100175.09;;;-0.81;77.88
39177;BME280;24904;52.208;21.192;2024-01-06T11:16:49;100169.33;;;-0.91;78.04
39177;BME280;24904;52.208;21.192;2024-01-06T11:21:55;100165.48;;;-0.88;78.68
39177;BME280;24904;52.208;21.192;2024-01-06T11:27:01;100171.73;;;-0.85;78.49
39177;BME280;24904;52.208;21.192;2024-01-06T11:32:19;100177.45;;;-0.83;78.57
39177;BME280;24904;52.208;21.192;2024-01-06T11:37:36;100181.40;;;-0.78;78.47
39177;BME280;24904;52.208;21.192;2024-01-06T11:48:25;100191.11;;;-0.92;77.97
39177;BME280;24904;52.208;21.192;2024-01-06T11:53:32;100191.86;;;-0.93;78.11
39177;BME280;24904;52.208;21.192;2024-01-06T11:58:35;100189.90;;;-0.92;78.07
39177;BME280;24904;52.208;21.192;2024-01-06T12:03:38;100185.95;;;-0.92;77.99
39177;BME280;24904;52.208;21.192;2024-01-06T12:08:41;100187.62;;;-0.92;77.84
39177;BME280;24904;52.208;21.192;2024-01-06T12:13:44;100189.46;;;-0.92;77.96
39177;BME280;24904;52.208;21.192;2024-01-06T12:18:48;100196.64;;;-0.93;77.77
39177;BME280;24904;52.208;21.192;2024-01-06T12:23:51;100196.31;;;-0.95;77.48
39177;BME280;24904;52.208;21.192;2024-01-06T12:28:55;100197.42;;;-0.92;77.42
39177;BME280;24904;52.208;21.192;2024-01-06T12:33:58;100204.88;;;-0.90;77.03
39177;BME280;24904;52.208;21.192;2024-01-06T12:39:01;100209.63;;;-0.87;77.22
39177;BME280;24904;52.208;21.192;2024-01-06T12:44:05;100220.73;;;-0.87;76.85
39177;BME280;24904;52.208;21.192;2024-01-06T12:49:09;100213.35;;;-0.90;76.72
39177;BME280;24904;52.208;21.192;2024-01-06T12:54:12;100216.15;;;-0.90;76.58
39177;BME280;24904;52.208;21.192;2024-01-06T12:59:15;100227.80;;;-0.91;76.14
39177;BME280;24904;52.208;21.192;2024-01-06T13:04:18;100234.24;;;-0.90;76.24
39177;BME280;24904;52.208;21.192;2024-01-06T13:09:21;100237.61;;;-0.86;76.05
39177;BME280;24904;52.208;21.192;2024-01-06T13:14:26;100245.79;;;-0.84;75.50
39177;BME280;24904;52.208;21.192;2024-01-06T13:19:29;100247.26;;;-0.85;75.00
39177;BME280;24904;52.208;21.192;2024-01-06T13:32:56;100264.02;;;-0.87;73.57
39177;BME280;24904;52.208;21.192;2024-01-06T13:38:02;100270.46;;;-0.81;73.59
39177;BME280;24904;52.208;21.192;2024-01-06T13:43:08;100273.15;;;-0.83;72.54
39177;BME280;24904;52.208;21.192;2024-01-06T13:48:18;100278.91;;;-0.80;72.43
39177;BME280;24904;52.208;21.192;2024-01-06T13:53:23;100278.10;;;-0.78;71.87
39177;BME280;24904;52.208;21.192;2024-01-06T13:58:29;100275.83;;;-0.80;71.38
39177;BME280;24904;52.208;21.192;2024-01-06T14:03:34;100279.95;;;-0.79;71.11
39177;BME280;24904;52.208;21.192;2024-01-06T14:08:39;100290.66;;;-0.80;70.65
39177;BME280;24904;52.208;21.192;2024-01-06T14:13:45;100296.19;;;-0.84;70.56
39177;BME280;24904;52.208;21.192;2024-01-06T14:18:52;100303.04;;;-0.88;70.18
39177;BME280;24904;52.208;21.192;2024-01-06T14:23:58;100307.70;;;-0.88;70.67
39177;BME280;24904;52.208;21.192;2024-01-06T14:29:04;100310.95;;;-0.87;70.32
39177;BME280;24904;52.208;21.192;2024-01-06T14:34:10;100308.23;;;-0.91;70.21
39177;BME280;24904;52.208;21.192;2024-01-06T14:48:10;100317.60;;;-0.88;70.17
39177;BME280;24904;52.208;21.192;2024-01-06T14:53:13;100326.52;;;-0.91;69.89
39177;BME280;24904;52.208;21.192;2024-01-06T14:58:21;100321.75;;;-0.91;69.99
39177;BME280;24904;52.208;21.192;2024-01-06T15:03:26;100327.30;;;-0.87;70.26
39177;BME280;24904;52.208;21.192;2024-01-06T15:08:29;100330.68;;;-0.89;70.10
39177;BME280;24904;52.208;21.192;2024-01-06T15:13:32;100333.27;;;-0.87;70.10
39177;BME280;24904;52.208;21.192;2024-01-06T15:18:35;100344.85;;;-0.89;69.64
39177;BME280;24904;52.208;21.192;2024-01-06T15:23:38;100356.31;;;-0.88;69.59
39177;BME280;24904;52.208;21.192;2024-01-06T15:28:41;100363.69;;;-0.84;69.13
39177;BME280;24904;52.208;21.192;2024-01-06T15:33:44;100365.39;;;-0.90;68.97
39177;BME280;24904;52.208;21.192;2024-01-06T15:38:49;100368.98;;;-0.88;68.75
39177;BME280;24904;52.208;21.192;2024-01-06T15:43:52;100376.05;;;-0.89;68.75
39177;BME280;24904;52.208;21.192;2024-01-06T15:48:55;100382.38;;;-0.87;68.87
39177;BME280;24904;52.208;21.192;2024-01-06T15:53:58;100387.04;;;-0.88;68.14
39177;BME280;24904;52.208;21.192;2024-01-06T15:59:01;100393.13;;;-0.94;67.77
39177;BME280;24904;52.208;21.192;2024-01-06T16:04:05;100392.59;;;-0.94;67.89
39177;BME280;24904;52.208;21.192;2024-01-06T16:09:08;100392.59;;;-0.96;67.45
39177;BME280;24904;52.208;21.192;2024-01-06T16:14:12;100398.96;;;-0.97;67.51
39177;BME280;24904;52.208;21.192;2024-01-06T16:19:15;100406.27;;;-0.99;67.20
39177;BME280;24904;52.208;21.192;2024-01-06T16:24:18;100403.79;;;-0.96;66.93
39177;BME280;24904;52.208;21.192;2024-01-06T16:29:21;100409.29;;;-0.99;66.86
39177;BME280;24904;52.208;21.192;2024-01-06T16:34:24;100414.30;;;-1.00;66.59
39177;BME280;24904;52.208;21.192;2024-01-06T16:39:27;100417.89;;;-1.06;66.26
39177;BME280;24904;52.208;21.192;2024-01-06T16:44:33;100410.98;;;-1.09;66.57
39177;BME280;24904;52.208;21.192;2024-01-06T16:49:36;100422.17;;;-1.10;66.51
39177;BME280;24904;52.208;21.192;2024-01-06T16:54:39;100433.58;;;-1.06;66.88
39177;BME280;24904;52.208;21.192;2024-01-06T16:59:43;100447.24;;;-1.06;66.27
39177;BME280;24904;52.208;21.192;2024-01-06T17:04:46;100450.09;;;-1.11;66.28
39177;BME280;24904;52.208;21.192;2024-01-06T17:09:49;100457.81;;;-1.08;65.97
39177;BME280;24904;52.208;21.192;2024-01-06T17:14:53;100468.85;;;-1.18;65.53
39177;BME280;24904;52.208;21.192;2024-01-06T17:19:56;100475.15;;;-1.21;65.91
39177;BME280;24904;52.208;21.192;2024-01-06T17:24:59;100483.08;;;-1.18;65.54
39177;BME280;24904;52.208;21.192;2024-01-06T17:30:02;100485.54;;;-1.23;65.59
39177;BME280;24904;52.208;21.192;2024-01-06T17:35:06;100483.30;;;-1.22;65.52
39177;BME280;24904;52.208;21.192;2024-01-06T17:40:12;100482.39;;;-1.19;65.59
39177;BME280;24904;52.208;21.192;2024-01-06T17:45:15;100486.67;;;-1.24;65.41
39177;BME280;24904;52.208;21.192;2024-01-06T17:50:18;100494.86;;;-1.18;65.33
39177;BME280;24904;52.208;21.192;2024-01-06T17:55:21;100492.69;;;-1.26;65.33
39177;BME280;24904;52.208;21.192;2024-01-06T18:00:24;100492.73;;;-1.29;64.96
39177;BME280;24904;52.208;21.192;2024-01-06T18:05:27;100484.96;;;-1.32;64.67
39177;BME280;24904;52.208;21.192;2024-01-06T18:10:30;100496.17;;;-1.32;64.67
39177;BME280;24904;52.208;21.192;2024-01-06T18:15:33;100494.31;;;-1.34;64.79
39177;BME280;24904;52.208;21.192;2024-01-06T18:20:36;100496.67;;;-1.40;64.26
39177;BME280;24904;52.208;21.192;2024-01-06T18:25:41;100500.95;;;-1.37;64.58
39177;BME280;24904;52.208;21.192;2024-01-06T18:30:44;100505.88;;;-1.32;64.55
39177;BME280;24904;52.208;21.192;2024-01-06T18:35:47;100509.83;;;-1.37;63.75
39177;BME280;24904;52.208;21.192;2024-01-06T18:40:50;100515.89;;;-1.38;63.87
39177;BME280;24904;52.208;21.192;2024-01-06T18:45:53;100518.38;;;-1.44;63.99
39177;BME280;24904;52.208;21.192;2024-01-06T18:50:56;100519.33;;;-1.49;63.88
39177;BME280;24904;52.208;21.192;2024-01-06T18:55:59;100524.94;;;-1.53;63.85
39177;BME280;24904;52.208;21.192;2024-01-06T19:01:04;100531.42;;;-1.56;63.84
39177;BME280;24904;52.208;21.192;2024-01-06T19:06:07;100539.48;;;-1.50;63.84
39177;BME280;24904;52.208;21.192;2024-01-06T19:11:10;100541.06;;;-1.56;63.63
39177;BME280;24904;52.208;21.192;2024-01-06T19:16:13;100543.30;;;-1.58;63.63
39177;BME280;24904;52.208;21.192;2024-01-06T19:21:16;100546.77;;;-1.55;63.96
39177;BME280;24904;52.208;21.192;2024-01-06T19:26:20;100547.71;;;-1.54;64.29
39177;BME280;24904;52.208;21.192;2024-01-06T19:31:23;100552.70;;;-1.47;64.12
39177;BME280;24904;52.208;21.192;2024-01-06T19:36:26;100551.93;;;-1.51;64.00
39177;BME280;24904;52.208;21.192;2024-01-06T19:41:30;100558.48;;;-1.49;63.83
39177;BME280;24904;52.208;21.192;2024-01-06T19:46:33;100563.96;;;-1.57;63.64
39177;BME280;24904;52.208;21.192;2024-01-06T19:51:37;100563.11;;;-1.61;64.05
39177;BME280;24904;52.208;21.192;2024-01-06T19:56:40;100566.12;;;-1.65;63.88
39177;BME280;24904;52.208;21.192;2024-01-06T20:01:43;100562.83;;;-1.73;63.67
39177;BME280;24904;52.208;21.192;2024-01-06T20:06:46;100561.83;;;-1.84;63.18
39177;BME280;24904;52.208;21.192;2024-01-06T20:11:49;100563.24;;;-1.98;63.72
39177;BME280;24904;52.208;21.192;2024-01-06T20:16:53;100565.86;;;-2.00;63.83
39177;BME280;24904;52.208;21.192;2024-01-06T20:21:58;100569.11;;;-1.96;64.36
39177;BME280;24904;52.208;21.192;2024-01-06T20:27:02;100570.52;;;-1.94;64.00
39177;BME280;24904;52.208;21.192;2024-01-06T20:32:06;100572.43;;;-2.01;63.34
39177;BME280;24904;52.208;21.192;2024-01-06T20:37:09;100566.17;;;-2.18;63.48
39177;BME280;24904;52.208;21.192;2024-01-06T20:42:12;100564.45;;;-2.22;63.58
39177;BME280;24904;52.208;21.192;2024-01-06T20:47:15;100567.06;;;-2.27;63.79
39177;BME280;24904;52.208;21.192;2024-01-06T20:52:18;100570.67;;;-2.21;64.03
39177;BME280;24904;52.208;21.192;2024-01-06T20:57:21;100572.14;;;-2.22;63.95
39177;BME280;24904;52.208;21.192;2024-01-06T21:02:24;100569.26;;;-2.25;63.72
39177;BME280;24904;52.208;21.192;2024-01-06T21:07:27;100564.86;;;-2.31;63.73
39177;BME280;24904;52.208;21.192;2024-01-06T21:12:30;100563.70;;;-2.37;63.67
39177;BME280;24904;52.208;21.192;2024-01-06T21:17:34;100572.21;;;-2.41;64.16
39177;BME280;24904;52.208;21.192;2024-01-06T21:22:37;100577.98;;;-2.48;64.12
39177;BME280;24904;52.208;21.192;2024-01-06T21:27:40;100578.92;;;-2.58;63.82
39177;BME280;24904;52.208;21.192;2024-01-06T21:32:43;100573.70;;;-2.57;64.18
39177;BME280;24904;52.208;21.192;2024-01-06T21:37:46;100583.80;;;-2.54;64.51
39177;BME280;24904;52.208;21.192;2024-01-06T21:42:49;100586.16;;;-2.55;64.37
39177;BME280;24904;52.208;21.192;2024-01-06T21:47:52;100586.77;;;-2.61;64.10
39177;BME280;24904;52.208;21.192;2024-01-06T21:52:58;100579.54;;;-2.72;64.32
39177;BME280;24904;52.208;21.192;2024-01-06T21:58:01;100587.48;;;-2.82;64.21
39177;BME280;24904;52.208;21.192;2024-01-06T22:03:04;100591.30;;;-2.82;64.60
39177;BME280;24904;52.208;21.192;2024-01-06T22:08:07;100593.19;;;-2.84;64.55
39177;BME280;24904;52.208;21.192;2024-01-06T22:13:10;100593.06;;;-2.96;64.88
39177;BME280;24904;52.208;21.192;2024-01-06T22:18:13;100594.85;;;-2.95;65.30
39177;BME280;24904;52.208;21.192;2024-01-06T22:23:16;100594.17;;;-2.92;65.88
39177;BME280;24904;52.208;21.192;2024-01-06T22:28:19;100596.71;;;-2.94;65.52
39177;BME280;24904;52.208;21.192;2024-01-06T22:33:22;100599.77;;;-3.02;65.58
39177;BME280;24904;52.208;21.192;2024-01-06T22:38:26;100613.20;;;-3.08;66.07
39177;BME280;24904;52.208;21.192;2024-01-06T22:43:29;100617.10;;;-3.15;66.05
39177;BME280;24904;52.208;21.192;2024-01-06T22:48:33;100617.69;;;-3.16;66.21
39177;BME280;24904;52.208;21.192;2024-01-06T22:53:36;100623.83;;;-3.16;66.14
39177;BME280;24904;52.208;21.192;2024-01-06T22:58:39;100629.17;;;-3.23;66.23
39177;BME280;24904;52.208;21.192;2024-01-06T23:03:42;100632.67;;;-3.25;66.59
39177;BME280;24904;52.208;21.192;2024-01-06T23:08:45;100639.65;;;-3.24;66.56
39177;BME280;24904;52.208;21.192;2024-01-06T23:13:48;100639.51;;;-3.24;66.58
39177;BME280;24904;52.208;21.192;2024-01-06T23:18:51;100641.95;;;-3.30;66.82
39177;BME280;24904;52.208;21.192;2024-01-06T23:23:55;100647.84;;;-3.29;66.97
39177;BME280;24904;52.208;21.192;2024-01-06T23:28:58;100651.13;;;-3.36;66.66
39177;BME280;24904;52.208;21.192;2024-01-06T23:34:01;100655.91;;;-3.41;67.05
39177;BME280;24904;52.208;21.192;2024-01-06T23:39:05;100659.41;;;-3.56;66.98
39177;BME280;24904;52.208;21.192;2024-01-06T23:44:08;100654.63;;;-3.63;67.18
39177;BME280;24904;52.208;21.192;2024-01-06T23:49:13;100659.27;;;-3.68;67.21
39177;BME280;24904;52.208;21.192;2024-01-06T23:54:16;100656.08;;;-3.70;67.78
39177;BME280;24904;52.208;21.192;2024-01-06T23:59:19;100657.05;;;-3.71;67.52
